Time;durP1;ratioP1;P1;durP2;ratioP2;P2;SDS_P1;SDS_P2;PMS_P1;PMS_P2;Temp;Humidity;BMP_temperature;BMP_pressure;BME280_temperature;BME280_humidity;BME280_pressure;Samples;Min_cycle;Max_cycle;Signal;HPM_P1;HPM_P2
2021/05/23 00:01:48;;;;;;;;;;;;;;;-150.07;49.18;62721.84;4846437;29;20038;-96
2021/05/23 00:04:31;;;;;;;54.53;41.33;;;;;;;-150.07;48.46;62139.97;4827338;29;19913;-92
2021/05/23 00:07:02;;;;;;;51.50;41.78;;;;;;;-150.07;48.41;62165.09;4829217;29;20034;-94
2021/05/23 00:10:07;;;;;;;59.53;46.13;;;;;;;-150.07;48.77;62740.69;4831788;29;20062;-91
2021/05/23 00:12:34;;;;;;;51.10;43.03;;;;;;;-150.07;48.77;62554.41;4888357;29;20071;-93
2021/05/23 00:15:01;;;;;;;46.17;39.78;;;;;;;-150.07;48.31;62776.28;4892719;29;20048;-91
2021/05/23 00:17:28;;;;;;;54.83;46.03;;;;;;;-150.07;48.74;62705.09;4900663;29;20064;-92
2021/05/23 00:19:55;;;;;;;59.13;46.40;;;;;;;-150.07;48.69;63701.56;4912609;29;20043;-91
2021/05/23 00:22:29;;;;;;;56.13;46.05;;;;;;;-150.07;48.84;62690.44;4912843;29;20032;-91
2021/05/23 00:24:56;;;;;;;59.03;46.80;;;;;;;-150.07;48.61;62299.03;4902864;29;20039;-87
2021/05/23 00:27:22;;;;;;;49.80;42.92;;;;;;;-150.07;48.07;62246.72;4912920;29;20353;-87
2021/05/23 00:29:49;;;;;;;64.10;43.65;;;;;;;-150.07;48.61;62456.03;4913372;29;20065;-85
2021/05/23 00:32:17;;;;;;;53.45;43.42;;;;;;;-150.07;47.76;62585.78;4896662;29;20032;-87
2021/05/23 00:34:44;;;;;;;54.58;44.58;;;;;;;-150.07;47.41;64049.16;4894315;29;20036;-89
2021/05/23 00:37:10;;;;;;;49.03;40.80;;;;;;;-150.07;47.34;62935.34;4892714;29;20024;-88
2021/05/23 00:39:37;;;;;;;63.13;45.95;;;;;;;-150.07;46.42;62412.06;4907508;29;20064;-87
2021/05/23 00:48:54;;;;;;;50.72;40.75;;;;;;;-150.07;47.80;62717.66;4922290;29;20047;-91
2021/05/23 00:51:47;;;;;;;52.33;40.53;;;;;;;-150.07;46.54;62502.06;4916779;29;20028;-95
2021/05/23 00:54:14;;;;;;;50.03;43.65;;;;;;;-150.07;45.82;62991.88;4921065;29;20032;-95
2021/05/23 00:56:43;;;;;;;57.03;45.33;;;;;;;-150.07;45.64;62836.97;4903909;29;20036;-88
2021/05/23 00:59:12;;;;;;;54.67;44.45;;;;;;;-150.07;45.24;62797.19;4882988;29;20539;-87
2021/05/23 01:01:45;;;;;;;46.15;40.58;;;;;;;-150.07;45.13;63098.63;4895951;29;20053;-86
2021/05/23 01:04:13;;;;;;;49.20;42.45;;;;;;;-150.07;45.00;62952.09;4865020;29;20098;-86
2021/05/23 01:06:40;;;;;;;55.38;40.50;;;;;;;-150.07;45.97;62985.59;4903415;29;20032;-87
2021/05/23 01:09:10;;;;;;;47.40;40.40;;;;;;;-150.07;45.33;62476.94;4903381;29;20075;-91
2021/05/23 01:11:43;;;;;;;46.05;39.40;;;;;;;-150.07;44.26;63274.47;4916646;29;20044;-91
2021/05/23 01:14:18;;;;;;;53.05;42.33;;;;;;;-150.07;44.18;63266.09;4892260;29;20052;-90
2021/05/23 01:16:55;;;;;;;51.67;44.80;;;;;;;-150.07;44.90;62926.97;4886727;29;20120;-89
2021/05/23 01:19:31;;;;;;;48.50;40.13;;;;;;;-150.07;44.93;63274.47;4892304;29;20024;-90
2021/05/23 01:22:09;;;;;;;44.13;38.53;;;;;;;-150.07;45.43;63312.16;4870181;29;20029;-90
2021/05/23 01:24:41;;;;;;;50.03;40.75;;;;;;;-150.07;44.90;63211.69;4865917;29;20116;-89
2021/05/23 01:27:10;;;;;;;53.53;43.70;;;;;;;-150.07;44.24;63073.50;4867516;29;20121;-91
2021/05/23 01:29:38;;;;;;;56.42;44.85;;;;;;;-150.07;43.63;64451.19;4880431;29;20029;-93
2021/05/23 01:32:06;;;;;;;51.55;41.95;;;;;;;-150.07;44.47;63412.66;4885851;29;20164;-92
2021/05/23 01:34:35;;;;;;;48.28;40.60;;;;;;;-150.07;44.96;63429.41;4878200;29;20029;-91
2021/05/23 01:37:13;;;;;;;50.63;45.17;;;;;;;-150.07;44.62;63194.94;4910122;29;20024;-91
2021/05/23 01:39:39;;;;;;;48.78;43.17;;;;;;;-150.07;44.50;63383.34;4890052;29;20066;-90
2021/05/23 01:42:08;;;;;;;48.35;38.47;;;;;;;-150.07;44.34;63389.63;4900326;29;20115;-90
2021/05/23 01:44:35;;;;;;;44.00;37.50;;;;;;;-150.07;44.29;63433.59;4883792;29;20068;-90
2021/05/23 01:47:02;;;;;;;45.42;38.95;;;;;;;-150.07;43.88;64333.94;4882660;29;20483;-91
2021/05/23 01:49:29;;;;;;;47.13;40.70;;;;;;;-150.07;43.56;63404.28;4883252;29;20055;-90
2021/05/23 01:51:56;;;;;;;41.40;35.78;;;;;;;-150.07;43.96;62868.38;4899604;29;20037;-90
2021/05/23 01:54:22;;;;;;;50.33;38.35;;;;;;;-150.07;42.77;63456.63;4899604;29;20128;-91
2021/05/23 01:56:50;;;;;;;45.90;36.90;;;;;;;-150.07;42.66;62897.69;4898544;29;20028;-91
2021/05/23 01:59:16;;;;;;;47.58;36.47;;;;;;;-150.07;43.28;63278.66;4900561;29;20044;-87
2021/05/23 02:01:43;;;;;;;46.65;40.25;;;;;;;-150.07;42.88;63446.16;4896722;29;21051;-86
2021/05/23 02:04:11;;;;;;;45.78;36.28;;;;;;;-150.07;42.15;63458.72;4892031;29;20131;-87
2021/05/23 02:06:38;;;;;;;48.10;40.03;;;;;;;-150.07;42.94;63065.16;4892930;29;20043;-87
2021/05/23 02:09:05;;;;;;;48.05;40.40;;;;;;;-150.07;42.69;62860.00;4899746;29;20029;-88
2021/05/23 02:11:32;;;;;;;42.08;36.72;;;;;;;-150.07;42.22;64354.88;4895966;29;20029;-88
2021/05/23 02:13:59;;;;;;;46.08;37.28;;;;;;;-150.07;41.74;64599.88;4897756;29;20033;-87
2021/05/23 02:16:26;;;;;;;45.83;37.35;;;;;;;-150.07;42.15;63048.41;4898159;29;20044;-88
2021/05/23 02:18:53;;;;;;;37.28;32.97;;;;;;;-150.07;42.69;62931.16;4887402;29;20033;-87
2021/05/23 02:21:19;;;;;;;40.53;34.72;;;;;;;-150.07;41.59;62991.88;4895017;29;20503;-88
2021/05/23 02:23:54;;;;;;;38.60;34.08;;;;;;;-150.07;41.29;63864.88;4889375;29;20044;-89
2021/05/23 02:26:23;;;;;;;38.97;30.60;;;;;;;-150.07;40.76;63580.16;4886187;29;20028;-92
2021/05/23 02:28:50;;;;;;;34.78;31.02;;;;;;;-150.07;40.52;63695.28;4892233;29;20068;-94
2021/05/23 02:31:18;;;;;;;32.83;29.33;;;;;;;-150.07;40.85;63220.06;4899317;29;20096;-91
2021/05/23 02:33:44;;;;;;;35.25;30.00;;;;;;;-150.07;40.15;63938.16;4898063;29;20036;-89
2021/05/23 02:36:20;;;;;;;30.35;26.33;;;;;;;-150.07;40.18;63019.09;4921344;29;20016;-88
2021/05/23 02:38:47;;;;;;;33.28;26.02;;;;;;;-150.07;40.17;64790.44;4919790;29;20032;-91
2021/05/23 02:41:15;;;;;;;28.95;24.08;;;;;;;-150.07;39.78;64719.25;4879965;29;20043;-90
2021/05/23 02:43:42;;;;;;;32.58;26.60;;;;;;;-150.07;39.57;62941.63;4914175;29;20076;-91
2021/05/23 02:46:08;;;;;;;42.05;34.08;;;;;;;-150.07;42.71;63307.97;4902061;29;20036;-87
2021/05/23 02:48:35;;;;;;;40.63;34.05;;;;;;;-150.07;44.32;63186.56;4902372;29;20033;-90
2021/05/23 02:51:03;;;;;;;41.22;36.95;;;;;;;-150.07;45.26;62700.91;4889225;29;20037;-92
2021/05/23 02:53:30;;;;;;;42.85;38.35;;;;;;;-150.07;44.65;63316.34;4892069;29;20040;-92
2021/05/23 02:55:58;;;;;;;47.83;41.40;;;;;;;-150.07;45.79;63042.13;4906463;29;20013;-94
2021/05/23 02:58:28;;;;;;;51.65;43.85;;;;;;;-150.07;46.35;64419.78;4907016;29;20044;-88
2021/05/23 03:00:55;;;;;;;54.40;43.47;;;;;;;-150.07;45.36;63906.75;4883167;29;20063;-89
2021/05/23 03:03:22;;;;;;;59.50;44.20;;;;;;;-150.07;44.69;63270.28;4888714;29;20036;-89
2021/05/23 03:05:49;;;;;;;49.40;43.20;;;;;;;-150.07;44.91;62968.84;4882271;29;20033;-88
2021/05/23 03:08:18;;;;;;;54.85;45.92;;;;;;;-150.07;46.48;62734.41;4904768;29;20119;-85
2021/05/23 03:10:52;;;;;;;51.70;43.65;;;;;;;-150.07;46.21;63337.28;4889386;29;20040;-83
2021/05/23 03:13:20;;;;;;;51.00;42.40;;;;;;;-150.07;45.17;63190.75;4902916;29;20028;-82
2021/05/23 03:15:47;;;;;;;51.95;45.78;;;;;;;-150.07;44.55;63228.44;4899624;29;20159;-86
2021/05/23 03:18:14;;;;;;;47.17;40.85;;;;;;;-150.07;44.25;63395.91;4889393;29;20115;-84
2021/05/23 03:20:42;;;;;;;34.40;29.45;;;;;;;-150.07;42.06;63278.66;4896992;29;20025;-79
2021/05/23 03:23:10;;;;;;;33.45;29.58;;;;;;;-150.07;42.08;63707.84;4883457;29;20036;-81
2021/05/23 03:25:38;;;;;;;34.80;30.00;;;;;;;-150.07;41.78;63825.09;4916105;29;20032;-82
2021/05/23 03:28:06;;;;;;;30.90;27.60;;;;;;;-150.07;40.99;63793.69;4898838;29;20123;-84
2021/05/23 03:30:39;;;;;;;32.60;26.80;;;;;;;-150.07;40.26;63655.50;4912168;29;20044;-82
2021/05/23 03:33:07;;;;;;;33.65;29.95;;;;;;;-150.07;40.78;63611.56;4889602;29;20494;-82
2021/05/23 03:35:35;;;;;;;36.63;30.77;;;;;;;-150.07;40.67;63749.72;4882660;29;20032;-79
2021/05/23 03:38:03;;;;;;;30.55;27.35;;;;;;;-150.07;40.47;63971.69;4895082;29;20057;-86
2021/05/23 03:40:31;;;;;;;32.80;26.45;;;;;;;-150.07;40.70;63816.72;4895870;29;20092;-80
2021/05/23 03:42:58;;;;;;;36.75;29.10;;;;;;;-150.07;40.69;63843.94;4898239;29;20039;-79
2021/05/23 03:45:25;;;;;;;31.23;27.92;;;;;;;-150.07;40.37;63636.69;4905744;29;20509;-79
2021/05/23 03:47:52;;;;;;;32.30;27.42;;;;;;;-150.07;40.12;63680.63;4911757;29;20482;-79
2021/05/23 03:50:22;;;;;;;32.83;27.70;;;;;;;-150.07;40.06;63814.63;4906560;29;20115;-77
2021/05/23 03:52:51;;;;;;;29.48;25.92;;;;;;;-150.07;40.85;63810.44;4901219;29;20447;-78
2021/05/23 03:55:19;;;;;;;25.50;22.27;;;;;;;-150.07;40.48;63915.13;4914827;29;20036;-78
2021/05/23 03:57:46;;;;;;;29.63;22.13;;;;;;;-150.07;39.93;63890.00;4900713;29;20063;-80
2021/05/23 04:00:15;;;;;;;24.25;21.42;;;;;;;-150.07;39.70;65138.13;4894849;29;20083;-78
2021/05/23 04:02:47;;;;;;;27.00;21.60;;;;;;;-150.07;39.34;64011.47;4894741;29;20029;-79
2021/05/23 04:05:16;;;;;;;31.55;26.33;;;;;;;-150.07;39.72;64063.81;4903587;29;20024;-80
2021/05/23 04:07:43;;;;;;;38.67;28.27;;;;;;;-150.07;39.96;63538.28;4903220;29;20028;-79
2021/05/23 04:10:13;;;;;;;36.00;32.22;;;;;;;-150.07;41.28;65094.13;4890752;29;20047;-79
2021/05/23 04:12:42;;;;;;;41.17;34.30;;;;;;;-150.07;41.38;64158.03;4896947;29;20047;-77
2021/05/23 04:15:10;;;;;;;46.65;38.13;;;;;;;-150.07;41.89;63977.97;4907809;29;20032;-78
2021/05/23 04:17:37;;;;;;;43.70;38.35;;;;;;;-150.07;42.06;64082.66;4896174;29;20384;-76
2021/05/23 04:20:07;;;;;;;46.13;37.78;;;;;;;-150.07;42.50;63806.25;4908979;29;20031;-80
2021/05/23 04:22:35;;;;;;;41.80;37.38;;;;;;;-150.07;42.68;63416.84;4907201;29;20382;-78
2021/05/23 04:25:05;;;;;;;44.65;38.10;;;;;;;-150.07;43.09;63680.63;4914773;29;20052;-77
2021/05/23 04:27:32;;;;;;;43.22;34.78;;;;;;;-150.07;42.87;63785.31;4912203;29;20050;-80
2021/05/23 04:29:59;;;;;;;43.80;36.83;;;;;;;-150.07;41.08;64545.44;4915125;29;20111;-79
2021/05/23 04:32:26;;;;;;;44.42;38.25;;;;;;;-150.07;42.54;63532.00;4891985;29;20157;-78
2021/05/23 04:34:53;;;;;;;42.72;37.42;;;;;;;-150.07;42.28;63391.72;4884968;29;20411;-78
2021/05/23 04:37:20;;;;;;;43.95;37.83;;;;;;;-150.07;43.63;63492.22;4878880;29;20044;-75
2021/05/23 04:39:46;;;;;;;41.92;37.25;;;;;;;-150.07;42.99;63599.00;4894145;29;20037;-78
2021/05/23 04:42:13;;;;;;;47.42;36.55;;;;;;;-150.07;43.40;63483.84;4894909;29;20036;-78
2021/05/23 04:44:40;;;;;;;48.20;40.83;;;;;;;-150.07;43.71;63542.47;4910630;29;20103;-79
2021/05/23 04:47:07;;;;;;;47.20;39.47;;;;;;;-150.07;44.37;63253.56;4913648;29;20040;-77
2021/05/23 04:49:38;;;;;;;48.03;40.20;;;;;;;-150.07;43.91;63550.84;4913057;29;20040;-78
2021/05/23 04:52:07;;;;;;;53.08;43.30;;;;;;;-150.07;44.48;63035.84;4905528;29;20119;-78
2021/05/23 04:54:36;;;;;;;48.53;42.63;;;;;;;-150.07;43.86;63596.91;4904256;29;20059;-78
2021/05/23 04:57:03;;;;;;;48.58;42.58;;;;;;;-150.07;43.91;63622.03;4893241;29;20176;-77
2021/05/23 04:59:30;;;;;;;49.03;43.75;;;;;;;-150.07;45.06;63211.69;4877059;29;20045;-78
2021/05/23 05:01:57;;;;;;;53.67;47.53;;;;;;;-150.07;46.01;63301.69;4876782;29;20032;-77
2021/05/23 05:04:25;;;;;;;60.22;48.83;;;;;;;-150.07;46.15;63245.19;4859389;29;20025;-77
2021/05/23 05:06:52;;;;;;;60.45;49.60;;;;;;;-150.07;47.01;64315.09;4894843;29;20033;-78
2021/05/23 05:09:19;;;;;;;65.70;50.40;;;;;;;-150.07;47.12;63161.44;4894543;29;20037;-78
2021/05/23 05:11:46;;;;;;;60.15;52.72;;;;;;;-150.07;47.52;62527.19;4895106;29;20035;-77
2021/05/23 05:14:13;;;;;;;61.97;51.72;;;;;;;-150.07;47.31;62985.59;4894073;29;20044;-78
2021/05/23 05:16:41;;;;;;;59.63;50.38;;;;;;;-150.07;46.95;63094.44;4907684;29;20054;-77
2021/05/23 05:19:09;;;;;;;59.03;49.40;;;;;;;-150.07;47.16;63111.19;4888906;29;20360;-76
2021/05/23 05:21:36;;;;;;;57.72;48.47;;;;;;;-150.07;46.80;63182.38;4881605;29;20031;-79
2021/05/23 05:24:03;;;;;;;66.35;51.55;;;;;;;-150.07;46.40;64392.56;4894797;29;20394;-77
2021/05/23 05:26:30;;;;;;;59.00;50.30;;;;;;;-150.07;46.68;63140.50;4897654;29;20028;-76
2021/05/23 05:28:57;;;;;;;54.30;48.58;;;;;;;-150.07;46.03;63042.13;4894190;29;20039;-77
2021/05/23 05:31:24;;;;;;;59.53;45.22;;;;;;;-150.07;45.38;63163.53;4874989;29;20394;-77
2021/05/23 05:33:51;;;;;;;47.75;41.65;;;;;;;-150.07;44.58;63289.13;4889168;29;20033;-78
2021/05/23 05:36:18;;;;;;;45.42;39.55;;;;;;;-150.07;44.86;63278.66;4895712;29;20076;-78
2021/05/23 05:38:45;;;;;;;60.30;40.65;;;;;;;-150.07;44.14;64436.53;4884158;29;20024;-79
2021/05/23 05:41:14;;;;;;;43.75;38.95;;;;;;;-150.07;43.82;63209.59;4898233;29;20599;-81
2021/05/23 05:43:40;;;;;;;54.72;36.85;;;;;;;-150.07;43.60;62943.72;4875632;29;20025;-78
2021/05/23 05:46:07;;;;;;;41.55;37.08;;;;;;;-150.07;43.00;62767.91;4887615;29;20041;-79
2021/05/23 05:48:35;;;;;;;41.80;34.40;;;;;;;-150.07;42.47;63416.84;4898337;29;20025;-78
2021/05/23 05:51:02;;;;;;;42.65;35.80;;;;;;;-150.07;42.03;63513.16;4889005;29;20028;-78
2021/05/23 05:53:29;;;;;;;38.20;32.85;;;;;;;-150.07;42.10;63385.44;4896819;29;20112;-79
2021/05/23 05:55:56;;;;;;;44.38;32.38;;;;;;;-150.07;42.20;63479.66;4897903;29;20028;-79
2021/05/23 05:58:23;;;;;;;37.97;30.15;;;;;;;-150.07;42.18;63324.72;4901517;29;20504;-78
2021/05/23 06:00:50;;;;;;;41.05;31.40;;;;;;;-150.07;41.95;62866.28;4900527;29;20596;-79
2021/05/23 06:03:17;;;;;;;41.03;30.30;;;;;;;-150.07;41.67;64019.84;4891135;29;20115;-80
2021/05/23 06:05:44;;;;;;;35.58;27.65;;;;;;;-150.07;41.05;63525.72;4896657;29;20040;-77
2021/05/23 06:08:10;;;;;;;32.60;26.83;;;;;;;-150.07;40.59;63441.97;4897679;29;20078;-79
2021/05/23 06:10:39;;;;;;;36.08;27.42;;;;;;;-150.07;40.75;63115.38;4891536;29;20028;-78
2021/05/23 06:13:07;;;;;;;32.25;27.15;;;;;;;-150.07;40.88;63364.50;4881090;29;20669;-79
2021/05/23 06:15:33;;;;;;;31.67;27.10;;;;;;;-150.07;41.10;63299.59;4900635;29;20040;-80
2021/05/23 06:18:01;;;;;;;26.85;23.98;;;;;;;-150.07;41.14;63441.97;4879371;29;20177;-78
2021/05/23 06:20:28;;;;;;;30.48;23.52;;;;;;;-150.07;41.02;63345.66;4895847;29;20071;-79
2021/05/23 06:22:55;;;;;;;30.45;22.63;;;;;;;-150.07;40.93;63079.78;4876916;29;20040;-81
2021/05/23 06:25:22;;;;;;;25.65;22.45;;;;;;;-150.07;40.59;63270.28;4880941;29;20047;-78
2021/05/23 06:27:49;;;;;;;27.40;22.10;;;;;;;-150.07;41.13;63188.66;4887599;29;20459;-80
2021/05/23 06:30:17;;;;;;;23.40;19.98;;;;;;;-150.07;41.06;63165.63;4897201;29;20024;-79
2021/05/23 06:32:44;;;;;;;28.17;19.60;;;;;;;-150.07;40.37;63048.41;4893142;29;20036;-81
2021/05/23 06:35:13;;;;;;;22.20;18.35;;;;;;;-150.07;40.81;62891.41;4900928;29;20033;-78
2021/05/23 06:37:41;;;;;;;18.90;16.37;;;;;;;-150.07;40.56;62610.91;4898976;29;20033;-79
2021/05/23 06:40:08;;;;;;;20.92;16.10;;;;;;;-150.07;40.31;62822.31;4897023;29;20149;-79
2021/05/23 06:42:35;;;;;;;19.25;16.85;;;;;;;-150.07;40.24;63058.88;4896698;29;20044;-80
2021/05/23 06:45:02;;;;;;;21.13;17.00;;;;;;;-150.07;40.24;63019.09;4897083;29;20024;-79
2021/05/23 06:47:29;;;;;;;26.02;16.73;;;;;;;-150.07;40.44;62872.56;4897374;29;20040;-79
2021/05/23 06:49:57;;;;;;;20.88;17.55;;;;;;;-150.07;40.66;63031.66;4902838;29;20087;-78
2021/05/23 06:52:26;;;;;;;25.17;17.73;;;;;;;-150.07;40.98;62931.16;4888203;29;20029;-78
2021/05/23 06:54:52;;;;;;;31.23;17.73;;;;;;;-150.07;40.49;62594.16;4885975;29;20552;-79
2021/05/23 06:57:19;;;;;;;22.63;17.13;;;;;;;-150.07;40.55;63077.69;4894174;29;20395;-78
2021/05/23 06:59:46;;;;;;;22.90;17.65;;;;;;;-150.07;40.47;64128.72;4900749;29;20490;-80
2021/05/23 07:02:13;;;;;;;17.73;15.52;;;;;;;-150.07;40.69;62610.91;4882376;29;20055;-79
2021/05/23 07:04:40;;;;;;;23.73;16.75;;;;;;;-150.07;41.38;62847.44;4893213;29;20072;-77
2021/05/23 07:07:07;;;;;;;25.10;19.33;;;;;;;-150.07;42.02;63086.06;4882404;29;20040;-78
2021/05/23 07:09:34;;;;;;;26.98;21.08;;;;;;;-150.07;43.34;62809.75;4892691;29;20037;-78
2021/05/23 07:12:02;;;;;;;29.13;21.67;;;;;;;-150.07;43.99;62893.50;4884491;29;20039;-79
2021/05/23 07:14:29;;;;;;;35.50;22.60;;;;;;;-150.07;44.40;62466.47;4878400;29;20116;-80
2021/05/23 07:16:56;;;;;;;25.17;21.50;;;;;;;-150.07;44.60;62682.06;4878662;29;20460;-80
2021/05/23 07:19:23;;;;;;;27.13;20.45;;;;;;;-150.07;44.06;63299.59;4874427;29;20406;-80
2021/05/23 07:21:49;;;;;;;22.70;20.27;;;;;;;-150.07;44.20;62926.97;4892390;29;20029;-78
2021/05/23 07:24:16;;;;;;;28.90;19.95;;;;;;;-150.07;43.99;62826.50;4893058;29;20028;-80
2021/05/23 07:26:43;;;;;;;21.00;18.80;;;;;;;-150.07;44.23;62811.84;4894736;29;20508;-79
2021/05/23 07:29:11;;;;;;;21.60;18.15;;;;;;;-150.07;43.73;62512.53;4893636;29;20032;-78
2021/05/23 07:31:38;;;;;;;25.30;20.67;;;;;;;-150.07;43.79;62550.22;4894533;29;20033;-78
2021/05/23 07:34:05;;;;;;;22.65;19.52;;;;;;;-150.07;43.56;62983.50;4877488;29;20033;-79
2021/05/23 07:36:32;;;;;;;27.55;19.90;;;;;;;-150.07;42.90;62746.97;4878020;29;20029;-79
2021/05/23 07:38:59;;;;;;;26.55;19.60;;;;;;;-150.07;42.33;62960.47;4895235;29;20084;-77
2021/05/23 07:41:26;;;;;;;25.23;20.60;;;;;;;-150.07;42.88;62497.88;4896331;29;20031;-79
2021/05/23 07:43:53;;;;;;;33.45;20.75;;;;;;;-150.07;42.68;63207.50;4896405;29;20029;-78
2021/05/23 07:46:20;;;;;;;23.20;20.65;;;;;;;-150.07;42.18;62813.94;4886648;29;20036;-79
2021/05/23 07:48:47;;;;;;;22.77;18.55;;;;;;;-150.07;42.10;64030.31;4896594;29;20020;-79
2021/05/23 07:51:14;;;;;;;22.73;16.65;;;;;;;-150.07;42.21;62885.13;4896965;29;20487;-79
2021/05/23 07:53:41;;;;;;;30.75;18.90;;;;;;;-150.07;41.35;63142.59;4879247;29;20048;-79
2021/05/23 07:56:08;;;;;;;28.40;18.13;;;;;;;-150.07;41.69;62726.03;4884031;29;20108;-79
2021/05/23 07:58:35;;;;;;;23.95;19.17;;;;;;;-150.07;41.82;63109.09;4883337;29;20056;-79
2021/05/23 08:01:02;;;;;;;24.23;18.17;;;;;;;-150.07;42.69;63021.19;4883342;29;20372;-78
2021/05/23 08:03:29;;;;;;;25.02;20.10;;;;;;;-150.07;42.70;63025.38;4894287;29;20660;-79
2021/05/23 08:05:56;;;;;;;23.20;20.70;;;;;;;-150.07;42.64;62876.75;4897487;29;20037;-79
2021/05/23 08:08:23;;;;;;;21.20;17.38;;;;;;;-150.07;42.72;62897.69;4891208;29;20032;-77
2021/05/23 08:10:51;;;;;;;22.92;16.77;;;;;;;-150.07;43.10;62659.03;4893326;29;20376;-78
2021/05/23 08:13:18;;;;;;;24.63;17.60;;;;;;;-150.07;42.10;63056.78;4886477;29;20506;-78
2021/05/23 08:15:45;;;;;;;22.35;16.25;;;;;;;-150.07;41.81;62851.63;4895176;29;20436;-79
2021/05/23 08:18:17;;;;;;;26.77;16.73;;;;;;;-150.07;42.22;63052.59;4893560;29;20094;-79
2021/05/23 08:20:43;;;;;;;25.08;18.38;;;;;;;-150.07;42.10;63073.50;4895068;29;20406;-78
2021/05/23 08:23:10;;;;;;;20.10;17.30;;;;;;;-150.07;41.88;62981.41;4892651;29;20119;-78
2021/05/23 08:25:40;;;;;;;22.05;17.38;;;;;;;-150.07;42.04;62981.41;4894117;29;20029;-79
2021/05/23 08:28:07;;;;;;;20.63;16.15;;;;;;;-150.07;42.78;62476.94;4890626;29;20037;-79
2021/05/23 08:30:33;;;;;;;23.75;19.98;;;;;;;-150.07;42.94;62893.50;4892684;29;20032;-79
2021/05/23 08:33:00;;;;;;;27.23;18.55;;;;;;;-150.07;43.51;62872.56;4893815;29;20044;-79
2021/05/23 08:35:28;;;;;;;24.48;20.42;;;;;;;-150.07;44.20;62734.41;4892486;29;20032;-79
2021/05/23 08:37:55;;;;;;;31.48;21.75;;;;;;;-150.07;44.85;62711.38;4893815;29;20028;-78
2021/05/23 08:40:22;;;;;;;29.65;20.92;;;;;;;-150.07;45.57;62261.38;4895076;29;20028;-78
2021/05/23 08:42:49;;;;;;;24.95;19.42;;;;;;;-150.07;45.67;62684.16;4894523;29;20051;-78
2021/05/23 08:45:16;;;;;;;28.00;20.08;;;;;;;-150.07;45.06;62663.22;4895164;29;20035;-78
2021/05/23 08:47:47;;;;;;;26.42;18.25;;;;;;;-150.07;43.71;62667.41;4888405;29;20164;-79
2021/05/23 08:50:23;;;;;;;25.52;19.65;;;;;;;-150.07;43.95;62713.47;4877079;29;20044;-78
2021/05/23 08:53:01;;;;;;;28.08;18.77;;;;;;;-150.07;43.32;63655.50;4876989;29;20041;-78
2021/05/23 08:55:30;;;;;;;23.55;19.20;;;;;;;-150.07;43.08;62491.59;4876932;29;20403;-78
2021/05/23 08:57:59;;;;;;;23.95;21.13;;;;;;;-150.07;43.40;62738.59;4877097;29;20138;-78
2021/05/23 09:00:27;;;;;;;23.33;18.53;;;;;;;-150.07;43.88;62816.03;4879809;29;20029;-79
2021/05/23 09:02:59;;;;;;;23.45;20.67;;;;;;;-150.07;44.44;62675.78;4884820;29;20033;-78
2021/05/23 09:05:37;;;;;;;28.63;22.60;;;;;;;-150.07;44.86;62412.06;4898648;29;20048;-78
2021/05/23 09:08:19;;;;;;;33.28;21.58;;;;;;;-150.07;45.41;62493.69;4883275;29;20025;-78
2021/05/23 09:10:48;;;;;;;29.60;23.50;;;;;;;-150.07;45.69;62659.03;4884703;29;20063;-78
2021/05/23 09:13:26;;;;;;;35.13;25.40;;;;;;;-150.07;45.98;62589.97;4889700;29;20163;-78
2021/05/23 09:16:15;;;;;;;32.88;24.92;;;;;;;-150.07;46.87;62556.47;4898364;29;20040;-78
2021/05/23 09:18:48;;;;;;;33.23;29.73;;;;;;;-150.07;47.90;62363.94;4886565;29;20092;-79
2021/05/23 09:21:21;;;;;;;34.90;28.05;;;;;;;-150.07;48.15;62064.63;4885034;29;20774;-78
2021/05/23 09:23:51;;;;;;;34.35;29.42;;;;;;;-150.07;47.49;62546.03;4896245;29;20037;-79
2021/05/23 09:26:21;;;;;;;34.58;30.52;;;;;;;-150.07;47.37;62556.47;4898043;29;20062;-77
2021/05/23 09:28:49;;;;;;;39.85;32.13;;;;;;;-150.07;48.94;62479.03;4897754;29;20037;-78
2021/05/23 09:31:22;;;;;;;37.42;31.73;;;;;;;-150.07;49.07;62491.59;4897495;29;20542;-79
2021/05/23 09:33:52;;;;;;;43.25;34.72;;;;;;;-150.07;49.08;62474.84;4899505;29;20041;-78
2021/05/23 09:36:21;;;;;;;43.53;34.58;;;;;;;-150.07;48.88;62301.13;4882547;29;20032;-77
2021/05/23 09:38:52;;;;;;;36.15;32.20;;;;;;;-150.07;49.88;62412.06;4879477;29;20503;-80
2021/05/23 09:41:25;;;;;;;36.10;29.90;;;;;;;-150.07;48.99;62458.13;4883177;29;20036;-77
2021/05/23 09:44:11;;;;;;;40.13;34.92;;;;;;;-150.07;48.08;62449.75;4879845;29;20021;-77
2021/05/23 09:46:51;;;;;;;40.95;35.65;;;;;;;-150.07;48.52;62407.88;4890527;29;20570;-78
2021/05/23 09:49:18;;;;;;;45.43;38.20;;;;;;;-150.07;48.68;62422.53;4898461;29;20040;-79
2021/05/23 09:52:00;;;;;;;40.22;33.70;;;;;;;-150.07;48.38;62418.34;4896515;29;20037;-77
2021/05/23 09:54:29;;;;;;;41.13;34.47;;;;;;;-150.07;47.85;62198.59;4887339;29;20049;-82
2021/05/23 09:56:57;;;;;;;33.30;27.67;;;;;;;-150.07;45.59;62416.25;4894402;29;20035;-77
2021/05/23 09:59:29;;;;;;;32.13;27.00;;;;;;;-150.07;45.47;62257.19;4898491;29;20063;-80
2021/05/23 10:02:10;;;;;;;41.65;32.53;;;;;;;-150.07;45.70;62259.28;4888030;29;20102;-79
2021/05/23 10:04:38;;;;;;;40.30;29.98;;;;;;;-150.07;46.63;62474.84;4898217;29;20557;-78
2021/05/23 10:07:10;;;;;;;32.45;29.02;;;;;;;-150.07;45.82;63601.09;4897738;29;20463;-81
2021/05/23 10:09:39;;;;;;;30.00;26.80;;;;;;;-150.07;44.56;62481.13;4887599;29;20119;-78
2021/05/23 10:12:09;;;;;;;37.80;29.27;;;;;;;-150.07;45.08;62169.28;4895506;29;20025;-83
2021/05/23 10:14:37;;;;;;;35.30;30.02;;;;;;;-150.07;45.47;62468.56;4900418;29;20036;-86
2021/05/23 10:17:08;;;;;;;33.55;26.80;;;;;;;-150.07;45.74;62433.00;4874030;29;20068;-80
2021/05/23 10:19:36;;;;;;;32.55;27.40;;;;;;;-150.07;46.11;62428.81;4892059;29;20036;-77
2021/05/23 10:22:06;;;;;;;27.25;24.40;;;;;;;-150.07;45.00;62460.19;4890959;29;20503;-79
2021/05/23 10:24:35;;;;;;;25.52;22.77;;;;;;;-150.07;45.24;62443.47;4897138;29;20634;-78
2021/05/23 10:27:09;;;;;;;26.35;22.23;;;;;;;-150.07;44.17;62483.22;4892856;29;20028;-78
2021/05/23 10:29:44;;;;;;;28.30;21.75;;;;;;;-150.07;44.83;62336.72;4906043;29;20509;-78
2021/05/23 10:32:17;;;;;;;24.35;19.38;;;;;;;-150.07;42.97;63632.47;4896992;29;20048;-78
2021/05/23 10:34:47;;;;;;;29.45;21.13;;;;;;;-150.07;44.96;62171.38;4900185;29;20064;-77
2021/05/23 10:37:14;;;;;;;;;;;;;;;-150.07;43.73;62412.06;4889198;29;20535;-78
2021/05/23 10:39:54;;;;;;;22.13;19.83;;;;;;;-150.07;45.03;62332.53;4893614;29;19946;-77
2021/05/23 10:42:23;;;;;;;;;;;;;;;-150.07;45.67;62336.72;4897735;29;20119;-77
2021/05/23 10:44:52;;;;;;;30.33;25.20;;;;;;;-150.07;46.51;62259.28;4915327;29;19918;-78
2021/05/23 10:47:23;;;;;;;28.75;25.48;;;;;;;-150.07;47.37;62267.66;4896276;29;20517;-79
2021/05/23 10:49:58;;;;;;;34.67;27.17;;;;;;;-150.07;47.77;62253.00;4896176;29;20792;-79
2021/05/23 10:52:28;;;;;;;36.38;26.30;;;;;;;-150.07;47.43;62240.44;4893499;29;20040;-79
2021/05/23 10:55:16;;;;;;;32.53;25.85;;;;;;;-150.07;48.18;62116.97;4896119;29;20465;-78
2021/05/23 10:57:47;;;;;;;36.72;25.05;;;;;;;-150.07;48.26;62259.28;4894997;29;20040;-79
2021/05/23 11:00:20;;;;;;;31.13;26.55;;;;;;;-150.07;48.29;62236.25;4896520;29;20043;-79
2021/05/23 11:02:50;;;;;;;29.95;26.73;;;;;;;-150.07;49.14;62127.41;4892472;29;20043;-78
2021/05/23 11:05:29;;;;;;;31.83;28.53;;;;;;;-150.07;49.54;62179.75;4899529;29;20039;-77
2021/05/23 11:08:04;;;;;;;33.88;28.80;;;;;;;-150.07;50.63;62144.16;4889097;29;20134;-79
2021/05/23 11:10:39;;;;;;;41.20;30.48;;;;;;;-150.07;51.41;61872.09;4893508;29;20032;-79
2021/05/23 11:13:08;;;;;;;34.25;29.42;;;;;;;-150.07;50.79;61972.56;4895833;29;20113;-78
2021/05/23 11:15:47;;;;;;;31.90;25.63;;;;;;;-150.07;50.23;62391.13;4894373;29;20048;-80
2021/05/23 11:18:21;;;;;;;36.15;27.23;;;;;;;-150.07;50.48;62098.13;4899533;29;21447;-79